sensor_id;sensor_type;location;lat;lon;timestamp;pressure;altitude;pressure_sealevel;temperature;humidity
48404;BME280;34202;52.536;6.042;2022-11-09T00:02:39;100490.04;;;12.88;93.55
48404;BME280;34202;52.536;6.042;2022-11-09T00:07:40;100487.23;;;12.89;93.47
48404;BME280;34202;52.536;6.042;2022-11-09T00:12:40;100493.35;;;12.88;93.28
48404;BME280;34202;52.536;6.042;2022-11-09T00:17:40;100484.64;;;12.86;93.28
48404;BME280;34202;52.536;6.042;2022-11-09T00:22:40;100486.21;;;12.85;93.43
48404;BME280;34202;52.536;6.042;2022-11-09T00:27:41;100486.92;;;12.83;93.39
48404;BME280;34202;52.536;6.042;2022-11-09T00:32:41;100477.67;;;12.82;93.49
48404;BME280;34202;52.536;6.042;2022-11-09T00:37:43;100477.15;;;12.81;93.52
48404;BME280;34202;52.536;6.042;2022-11-09T00:42:44;100487.64;;;12.81;93.62
48404;BME280;34202;52.536;6.042;2022-11-09T00:47:44;100492.52;;;12.83;93.88
48404;BME280;34202;52.536;6.042;2022-11-09T00:52:45;100490.56;;;12.86;94.06
48404;BME280;34202;52.536;6.042;2022-11-09T00:57:48;100492.44;;;12.90;94.02
48404;BME280;34202;52.536;6.042;2022-11-09T01:02:49;100490.02;;;12.91;93.75
48404;BME280;34202;52.536;6.042;2022-11-09T01:07:50;100489.86;;;12.87;93.52
48404;BME280;34202;52.536;6.042;2022-11-09T01:12:50;100486.75;;;12.82;93.45
48404;BME280;34202;52.536;6.042;2022-11-09T01:17:51;100487.16;;;12.77;93.42
48404;BME280;34202;52.536;6.042;2022-11-09T01:22:51;100488.77;;;12.71;93.37
48404;BME280;34202;52.536;6.042;2022-11-09T01:27:53;100489.84;;;12.67;93.44
48404;BME280;34202;52.536;6.042;2022-11-09T01:32:53;100493.02;;;12.64;93.45
48404;BME280;34202;52.536;6.042;2022-11-09T01:37:53;100490.77;;;12.60;93.46
48404;BME280;34202;52.536;6.042;2022-11-09T01:42:54;100482.25;;;12.56;93.52
48404;BME280;34202;52.536;6.042;2022-11-09T01:48:04;100485.05;;;12.52;93.39
48404;BME280;34202;52.536;6.042;2022-11-09T01:53:13;100482.98;;;12.49;93.53
48404;BME280;34202;52.536;6.042;2022-11-09T01:58:18;100485.29;;;12.46;93.55
48404;BME280;34202;52.536;6.042;2022-11-09T02:03:24;100490.21;;;12.40;93.50
48404;BME280;34202;52.536;6.042;2022-11-09T02:08:26;100492.84;;;12.36;93.54
48404;BME280;34202;52.536;6.042;2022-11-09T02:13:28;100492.19;;;12.31;93.41
48404;BME280;34202;52.536;6.042;2022-11-09T02:18:30;100499.54;;;12.27;93.50
48404;BME280;34202;52.536;6.042;2022-11-09T02:23:30;100498.70;;;12.22;93.72
48404;BME280;34202;52.536;6.042;2022-11-09T02:28:30;100503.77;;;12.20;93.67
48404;BME280;34202;52.536;6.042;2022-11-09T02:33:42;100510.41;;;12.16;93.59
48404;BME280;34202;52.536;6.042;2022-11-09T02:38:42;100509.03;;;12.13;93.66
48404;BME280;34202;52.536;6.042;2022-11-09T02:43:43;100505.55;;;12.09;93.51
48404;BME280;34202;52.536;6.042;2022-11-09T02:48:43;100489.71;;;12.04;93.49
48404;BME280;34202;52.536;6.042;2022-11-09T02:53:44;100480.32;;;11.97;93.47
48404;BME280;34202;52.536;6.042;2022-11-09T02:58:44;100483.33;;;11.93;93.52
48404;BME280;34202;52.536;6.042;2022-11-09T03:03:45;100484.17;;;11.88;93.69
48404;BME280;34202;52.536;6.042;2022-11-09T03:08:45;100485.42;;;11.83;93.74
48404;BME280;34202;52.536;6.042;2022-11-09T03:13:45;100495.91;;;11.77;93.85
48404;BME280;34202;52.536;6.042;2022-11-09T03:18:45;100492.25;;;11.72;94.09
48404;BME280;34202;52.536;6.042;2022-11-09T03:23:47;100493.48;;;11.69;94.54
48404;BME280;34202;52.536;6.042;2022-11-09T03:28:48;100495.58;;;11.68;94.88
48404;BME280;34202;52.536;6.042;2022-11-09T03:33:48;100493.48;;;11.67;95.13
48404;BME280;34202;52.536;6.042;2022-11-09T03:38:48;100492.98;;;11.67;95.31
48404;BME280;34202;52.536;6.042;2022-11-09T03:43:49;100497.15;;;11.66;95.50
48404;BME280;34202;52.536;6.042;2022-11-09T03:48:49;100497.69;;;11.64;95.57
48404;BME280;34202;52.536;6.042;2022-11-09T03:53:49;100497.34;;;11.63;95.76
48404;BME280;34202;52.536;6.042;2022-11-09T03:58:50;100499.61;;;11.62;95.89
48404;BME280;34202;52.536;6.042;2022-11-09T04:03:50;100502.23;;;11.61;96.02
48404;BME280;34202;52.536;6.042;2022-11-09T04:08:51;100496.65;;;11.58;96.12
48404;BME280;34202;52.536;6.042;2022-11-09T04:13:52;100500.50;;;11.57;96.39
48404;BME280;34202;52.536;6.042;2022-11-09T04:18:52;100508.00;;;11.56;96.50
48404;BME280;34202;52.536;6.042;2022-11-09T04:23:52;100517.77;;;11.55;96.58
48404;BME280;34202;52.536;6.042;2022-11-09T04:28:53;100536.05;;;11.54;96.75
48404;BME280;34202;52.536;6.042;2022-11-09T04:33:53;100543.73;;;11.52;96.84
48404;BME280;34202;52.536;6.042;2022-11-09T04:38:53;100551.91;;;11.53;97.00
48404;BME280;34202;52.536;6.042;2022-11-09T04:43:54;100554.70;;;11.55;97.25
48404;BME280;34202;52.536;6.042;2022-11-09T04:48:54;100561.49;;;11.56;97.19
48404;BME280;34202;52.536;6.042;2022-11-09T04:53:54;100569.52;;;11.56;97.19
48404;BME280;34202;52.536;6.042;2022-11-09T04:58:55;100577.69;;;11.58;97.26
48404;BME280;34202;52.536;6.042;2022-11-09T05:03:55;100576.65;;;11.57;97.07
48404;BME280;34202;52.536;6.042;2022-11-09T05:08:56;100574.58;;;11.55;97.10
48404;BME280;34202;52.536;6.042;2022-11-09T05:13:57;100575.80;;;11.55;97.25
48404;BME280;34202;52.536;6.042;2022-11-09T05:18:58;100573.52;;;11.53;97.12
48404;BME280;34202;52.536;6.042;2022-11-09T05:23:58;100566.38;;;11.50;97.10
48404;BME280;34202;52.536;6.042;2022-11-09T05:29:00;100573.70;;;11.48;97.11
48404;BME280;34202;52.536;6.042;2022-11-09T05:34:02;100571.80;;;11.46;97.27
48404;BME280;34202;52.536;6.042;2022-11-09T05:39:03;100573.89;;;11.45;97.26
48404;BME280;34202;52.536;6.042;2022-11-09T05:44:03;100578.77;;;11.44;97.24
48404;BME280;34202;52.536;6.042;2022-11-09T05:49:04;100578.41;;;11.40;97.08
48404;BME280;34202;52.536;6.042;2022-11-09T05:54:04;100576.85;;;11.38;97.19
48404;BME280;34202;52.536;6.042;2022-11-09T05:59:04;100578.44;;;11.36;97.17
48404;BME280;34202;52.536;6.042;2022-11-09T06:04:06;100584.88;;;11.35;97.11
48404;BME280;34202;52.536;6.042;2022-11-09T06:09:06;100589.41;;;11.35;97.20
48404;BME280;34202;52.536;6.042;2022-11-09T06:14:07;100591.66;;;11.34;97.18
48404;BME280;34202;52.536;6.042;2022-11-09T06:19:07;100596.20;;;11.33;97.05
48404;BME280;34202;52.536;6.042;2022-11-09T06:24:08;100605.08;;;11.30;97.11
48404;BME280;34202;52.536;6.042;2022-11-09T06:29:08;100610.33;;;11.28;96.97
48404;BME280;34202;52.536;6.042;2022-11-09T06:34:09;100608.92;;;11.26;97.09
48404;BME280;34202;52.536;6.042;2022-11-09T06:39:10;100603.34;;;11.23;97.18
48404;BME280;34202;52.536;6.042;2022-11-09T06:44:10;100608.91;;;11.21;97.30
48404;BME280;34202;52.536;6.042;2022-11-09T06:49:11;100612.39;;;11.18;97.28
48404;BME280;34202;52.536;6.042;2022-11-09T06:54:11;100617.45;;;11.16;97.35
48404;BME280;34202;52.536;6.042;2022-11-09T06:59:12;100627.20;;;11.16;97.56
48404;BME280;34202;52.536;6.042;2022-11-09T07:04:13;100633.46;;;11.15;97.55
48404;BME280;34202;52.536;6.042;2022-11-09T07:09:13;100631.73;;;11.15;97.71
48404;BME280;34202;52.536;6.042;2022-11-09T07:14:14;100641.14;;;11.15;97.69
48404;BME280;34202;52.536;6.042;2022-11-09T07:19:14;100643.92;;;11.15;97.76
48404;BME280;34202;52.536;6.042;2022-11-09T07:24:14;100649.84;;;11.16;97.77
48404;BME280;34202;52.536;6.042;2022-11-09T07:29:15;100644.27;;;11.17;97.92
48404;BME280;34202;52.536;6.042;2022-11-09T07:34:15;100650.02;;;11.17;98.06
48404;BME280;34202;52.536;6.042;2022-11-09T07:39:15;100653.16;;;11.17;98.10
48404;BME280;34202;52.536;6.042;2022-11-09T07:44:16;100657.33;;;11.18;98.15
48404;BME280;34202;52.536;6.042;2022-11-09T07:49:19;100659.79;;;11.18;98.22
48404;BME280;34202;52.536;6.042;2022-11-09T07:54:20;100664.12;;;11.20;98.45
48404;BME280;34202;52.536;6.042;2022-11-09T07:59:20;100667.09;;;11.23;98.74
48404;BME280;34202;52.536;6.042;2022-11-09T08:04:20;100670.58;;;11.27;98.95
48404;BME280;34202;52.536;6.042;2022-11-09T08:09:21;100675.64;;;11.32;99.07
48404;BME280;34202;52.536;6.042;2022-11-09T08:14:21;100675.65;;;11.36;99.10
48404;BME280;34202;52.536;6.042;2022-11-09T08:19:22;100680.19;;;11.40;99.24
48404;BME280;34202;52.536;6.042;2022-11-09T08:24:22;100678.62;;;11.47;99.35
48404;BME280;34202;52.536;6.042;2022-11-09T08:29:23;100678.96;;;11.53;99.53
48404;BME280;34202;52.536;6.042;2022-11-09T08:34:23;100678.09;;;11.59;99.50
48404;BME280;34202;52.536;6.042;2022-11-09T08:39:23;100680.89;;;11.66;99.50
48404;BME280;34202;52.536;6.042;2022-11-09T08:44:24;100683.84;;;11.71;99.39
48404;BME280;34202;52.536;6.042;2022-11-09T08:49:24;100685.93;;;11.73;99.01
48404;BME280;34202;52.536;6.042;2022-11-09T08:54:24;100690.47;;;11.75;99.01
48404;BME280;34202;52.536;6.042;2022-11-09T08:59:25;100695.70;;;11.79;99.19
48404;BME280;34202;52.536;6.042;2022-11-09T09:04:25;100693.95;;;11.83;99.14
48404;BME280;34202;52.536;6.042;2022-11-09T09:09:26;100693.44;;;11.88;99.07
48404;BME280;34202;52.536;6.042;2022-11-09T09:14:26;100696.06;;;11.95;99.23
48404;BME280;34202;52.536;6.042;2022-11-09T09:19:26;100702.68;;;12.03;99.25
48404;BME280;34202;52.536;6.042;2022-11-09T09:24:27;100709.65;;;12.12;99.16
48404;BME280;34202;52.536;6.042;2022-11-09T09:29:27;100720.96;;;12.19;99.04
48404;BME280;34202;52.536;6.042;2022-11-09T09:34:28;100716.24;;;12.27;98.78
48404;BME280;34202;52.536;6.042;2022-11-09T09:39:28;100721.64;;;12.35;98.78
48404;BME280;34202;52.536;6.042;2022-11-09T09:44:50;100722.49;;;12.43;98.49
48404;BME280;34202;52.536;6.042;2022-11-09T09:50:03;100725.26;;;12.50;98.32
48404;BME280;34202;52.536;6.042;2022-11-09T09:55:12;100734.14;;;12.59;98.09
48404;BME280;34202;52.536;6.042;2022-11-09T10:00:21;100740.58;;;12.67;97.77
48404;BME280;34202;52.536;6.042;2022-11-09T10:05:27;100745.79;;;12.73;97.52
48404;BME280;34202;52.536;6.042;2022-11-09T10:10:41;100749.61;;;12.79;97.01
48404;BME280;34202;52.536;6.042;2022-11-09T10:15:50;100756.92;;;12.83;96.78
48404;BME280;34202;52.536;6.042;2022-11-09T10:31:32;100752.13;;;13.01;96.33
48404;BME280;34202;52.536;6.042;2022-11-09T10:36:43;100749.84;;;13.07;95.89
48404;BME280;34202;52.536;6.042;2022-11-09T10:41:44;100748.95;;;13.11;95.59
48404;BME280;34202;52.536;6.042;2022-11-09T10:47:11;100749.27;;;13.17;95.19
48404;BME280;34202;52.536;6.042;2022-11-09T10:52:44;100745.58;;;13.20;94.77
48404;BME280;34202;52.536;6.042;2022-11-09T10:57:54;100748.69;;;13.24;94.52
48404;BME280;34202;52.536;6.042;2022-11-09T11:02:55;100745.70;;;13.27;94.25
48404;BME280;34202;52.536;6.042;2022-11-09T11:07:56;100746.22;;;13.31;93.91
48404;BME280;34202;52.536;6.042;2022-11-09T11:18:03;100747.77;;;13.37;93.23
48404;BME280;34202;52.536;6.042;2022-11-09T11:23:19;100744.92;;;13.46;93.36
48404;BME280;34202;52.536;6.042;2022-11-09T11:28:27;100744.48;;;13.58;93.36
48404;BME280;34202;52.536;6.042;2022-11-09T11:33:29;100744.59;;;13.69;93.08
48404;BME280;34202;52.536;6.042;2022-11-09T11:38:36;100749.10;;;13.72;92.32
48404;BME280;34202;52.536;6.042;2022-11-09T11:43:46;100743.48;;;13.75;91.84
48404;BME280;34202;52.536;6.042;2022-11-09T12:00:01;100729.55;;;13.88;91.27
48404;BME280;34202;52.536;6.042;2022-11-09T12:10:44;100726.33;;;14.15;91.10
48404;BME280;34202;52.536;6.042;2022-11-09T12:16:12;100733.77;;;14.23;90.34
48404;BME280;34202;52.536;6.042;2022-11-09T12:21:16;100732.54;;;14.24;88.95
48404;BME280;34202;52.536;6.042;2022-11-09T12:26:33;100737.83;;;14.21;88.37
48404;BME280;34202;52.536;6.042;2022-11-09T12:37:06;100734.89;;;14.18;87.59
48404;BME280;34202;52.536;6.042;2022-11-09T12:47:27;100743.51;;;14.13;86.95
48404;BME280;34202;52.536;6.042;2022-11-09T12:52:29;100735.34;;;14.08;86.50
48404;BME280;34202;52.536;6.042;2022-11-09T12:57:30;100741.80;;;14.09;86.25
48404;BME280;34202;52.536;6.042;2022-11-09T13:02:53;100749.11;;;14.11;85.86
48404;BME280;34202;52.536;6.042;2022-11-09T13:07:58;100759.44;;;14.11;85.82
48404;BME280;34202;52.536;6.042;2022-11-09T13:13:13;100769.11;;;14.06;85.43
48404;BME280;34202;52.536;6.042;2022-11-09T13:23:31;100785.98;;;13.97;85.72
48404;BME280;34202;52.536;6.042;2022-11-09T13:33:32;100799.14;;;13.93;86.21
48404;BME280;34202;52.536;6.042;2022-11-09T13:38:34;100807.21;;;13.91;86.44
48404;BME280;34202;52.536;6.042;2022-11-09T13:43:37;100811.93;;;13.91;86.57
48404;BME280;34202;52.536;6.042;2022-11-09T13:54:02;100814.77;;;13.85;86.29
48404;BME280;34202;52.536;6.042;2022-11-09T13:59:13;100811.65;;;13.82;86.51
48404;BME280;34202;52.536;6.042;2022-11-09T14:20:53;100834.27;;;13.75;85.50
48404;BME280;34202;52.536;6.042;2022-11-09T14:25:55;100844.27;;;13.70;85.54
48404;BME280;34202;52.536;6.042;2022-11-09T14:30:57;100842.00;;;13.68;85.86
48404;BME280;34202;52.536;6.042;2022-11-09T14:35:58;100841.13;;;13.68;86.02
48404;BME280;34202;52.536;6.042;2022-11-09T14:40:59;100851.46;;;13.65;85.82
48404;BME280;34202;52.536;6.042;2022-11-09T14:46:03;100856.20;;;13.60;85.60
48404;BME280;34202;52.536;6.042;2022-11-09T14:51:05;100858.86;;;13.57;85.72
48404;BME280;34202;52.536;6.042;2022-11-09T14:56:09;100867.08;;;13.54;85.61
48404;BME280;34202;52.536;6.042;2022-11-09T15:06:17;100882.84;;;13.49;85.80
48404;BME280;34202;52.536;6.042;2022-11-09T15:11:17;100883.55;;;13.47;85.75
48404;BME280;34202;52.536;6.042;2022-11-09T15:16:23;100886.36;;;13.44;85.32
48404;BME280;34202;52.536;6.042;2022-11-09T15:26:38;100893.39;;;13.35;85.13
48404;BME280;34202;52.536;6.042;2022-11-09T15:31:55;100894.45;;;13.30;85.17
48404;BME280;34202;52.536;6.042;2022-11-09T15:36:56;100899.34;;;13.26;85.33
48404;BME280;34202;52.536;6.042;2022-11-09T15:41:56;100905.45;;;13.23;85.38
48404;BME280;34202;52.536;6.042;2022-11-09T15:46:57;100916.65;;;13.20;85.50
48404;BME280;34202;52.536;6.042;2022-11-09T15:51:57;100922.79;;;13.15;85.69
48404;BME280;34202;52.536;6.042;2022-11-09T15:56:58;100932.23;;;13.10;86.19
48404;BME280;34202;52.536;6.042;2022-11-09T16:01:58;100949.73;;;13.03;86.66
48404;BME280;34202;52.536;6.042;2022-11-09T16:06:58;100953.92;;;12.96;87.16
48404;BME280;34202;52.536;6.042;2022-11-09T16:11:59;100954.27;;;12.90;87.70
48404;BME280;34202;52.536;6.042;2022-11-09T16:16:59;100964.23;;;12.82;88.15
48404;BME280;34202;52.536;6.042;2022-11-09T16:21:59;100991.48;;;12.75;88.74
48404;BME280;34202;52.536;6.042;2022-11-09T16:27:03;100996.38;;;12.66;89.40
48404;BME280;34202;52.536;6.042;2022-11-09T16:32:04;100997.41;;;12.57;89.99
48404;BME280;34202;52.536;6.042;2022-11-09T16:37:04;101012.06;;;12.50;90.39
48404;BME280;34202;52.536;6.042;2022-11-09T16:42:07;101017.99;;;12.44;90.84
48404;BME280;34202;52.536;6.042;2022-11-09T16:47:12;101028.44;;;12.36;91.17
48404;BME280;34202;52.536;6.042;2022-11-09T16:52:13;101035.76;;;12.31;91.54
48404;BME280;34202;52.536;6.042;2022-11-09T16:57:14;101041.67;;;12.26;91.93
48404;BME280;34202;52.536;6.042;2022-11-09T17:02:14;101054.56;;;12.18;92.06
48404;BME280;34202;52.536;6.042;2022-11-09T17:07:14;101064.82;;;12.10;92.29
48404;BME280;34202;52.536;6.042;2022-11-09T17:12:15;101069.52;;;12.04;92.88
48404;BME280;34202;52.536;6.042;2022-11-09T17:17:15;101076.14;;;12.01;93.36
48404;BME280;34202;52.536;6.042;2022-11-09T17:22:16;101090.42;;;11.98;93.78
48404;BME280;34202;52.536;6.042;2022-11-09T17:27:16;101100.53;;;11.98;94.19
48404;BME280;34202;52.536;6.042;2022-11-09T17:32:17;101110.48;;;11.96;94.32
48404;BME280;34202;52.536;6.042;2022-11-09T17:37:21;101116.90;;;11.92;94.36
48404;BME280;34202;52.536;6.042;2022-11-09T17:42:22;101120.85;;;11.88;94.49
48404;BME280;34202;52.536;6.042;2022-11-09T17:47:22;101126.06;;;11.83;94.56
48404;BME280;34202;52.536;6.042;2022-11-09T17:52:22;101137.02;;;11.78;94.77
48404;BME280;34202;52.536;6.042;2022-11-09T17:57:23;101140.64;;;11.74;94.85
48404;BME280;34202;52.536;6.042;2022-11-09T18:02:24;101152.63;;;11.67;94.66
48404;BME280;34202;52.536;6.042;2022-11-09T18:07:24;101159.05;;;11.62;94.76
48404;BME280;34202;52.536;6.042;2022-11-09T18:12:25;101168.92;;;11.56;94.83
48404;BME280;34202;52.536;6.042;2022-11-09T18:17:26;101173.42;;;11.50;94.76
48404;BME280;34202;52.536;6.042;2022-11-09T18:22:26;101187.14;;;11.44;94.91
48404;BME280;34202;52.536;6.042;2022-11-09T18:27:26;101199.63;;;11.37;95.13
48404;BME280;34202;52.536;6.042;2022-11-09T18:32:27;101204.62;;;11.31;95.36
48404;BME280;34202;52.536;6.042;2022-11-09T18:37:27;101210.16;;;11.27;95.68
48404;BME280;34202;52.536;6.042;2022-11-09T18:42:27;101217.44;;;11.23;96.03
48404;BME280;34202;52.536;6.042;2022-11-09T18:47:28;101222.27;;;11.19;96.31
48404;BME280;34202;52.536;6.042;2022-11-09T18:52:31;101226.05;;;11.15;96.59
48404;BME280;34202;52.536;6.042;2022-11-09T18:57:32;101230.72;;;11.11;96.72
48404;BME280;34202;52.536;6.042;2022-11-09T19:02:33;101241.48;;;11.07;96.91
48404;BME280;34202;52.536;6.042;2022-11-09T19:07:33;101246.13;;;11.03;97.10
48404;BME280;34202;52.536;6.042;2022-11-09T19:12:34;101254.27;;;11.00;97.30
48404;BME280;34202;52.536;6.042;2022-11-09T19:17:34;101269.41;;;10.98;97.58
48404;BME280;34202;52.536;6.042;2022-11-09T19:22:36;101283.67;;;10.97;97.99
48404;BME280;34202;52.536;6.042;2022-11-09T19:27:36;101285.08;;;10.96;98.27
48404;BME280;34202;52.536;6.042;2022-11-09T19:32:37;101290.82;;;10.96;98.58
48404;BME280;34202;52.536;6.042;2022-11-09T19:37:37;101293.78;;;10.97;98.83
48404;BME280;34202;52.536;6.042;2022-11-09T19:42:37;101300.75;;;10.97;98.95
48404;BME280;34202;52.536;6.042;2022-11-09T19:47:38;101306.67;;;10.96;99.00
48404;BME280;34202;52.536;6.042;2022-11-09T19:52:38;101315.89;;;10.97;99.01
48404;BME280;34202;52.536;6.042;2022-11-09T19:57:39;101331.55;;;10.95;99.12
48404;BME280;34202;52.536;6.042;2022-11-09T20:02:39;101344.60;;;10.93;99.07
48404;BME280;34202;52.536;6.042;2022-11-09T20:07:39;101348.89;;;10.90;99.10
48404;BME280;34202;52.536;6.042;2022-11-09T20:12:40;101355.48;;;10.87;99.05
48404;BME280;34202;52.536;6.042;2022-11-09T20:17:49;101368.29;;;10.82;99.02
48404;BME280;34202;52.536;6.042;2022-11-09T20:22:49;101375.35;;;10.77;99.03
48404;BME280;34202;52.536;6.042;2022-11-09T20:27:50;101378.42;;;10.72;99.15
48404;BME280;34202;52.536;6.042;2022-11-09T20:32:51;101386.89;;;10.68;99.20
48404;BME280;34202;52.536;6.042;2022-11-09T20:37:51;101389.09;;;10.63;99.35
48404;BME280;34202;52.536;6.042;2022-11-09T20:42:51;101391.96;;;10.58;99.39
48404;BME280;34202;52.536;6.042;2022-11-09T20:47:52;101399.04;;;10.54;99.45
48404;BME280;34202;52.536;6.042;2022-11-09T20:52:52;101403.14;;;10.49;99.53
48404;BME280;34202;52.536;6.042;2022-11-09T20:57:53;101405.48;;;10.44;99.77
48404;BME280;34202;52.536;6.042;2022-11-09T21:02:53;101414.83;;;10.40;99.97
48404;BME280;34202;52.536;6.042;2022-11-09T21:07:54;101416.34;;;10.37;100.00
48404;BME280;34202;52.536;6.042;2022-11-09T21:12:54;101426.55;;;10.35;100.00
48404;BME280;34202;52.536;6.042;2022-11-09T21:17:55;101427.71;;;10.31;100.00
48404;BME280;34202;52.536;6.042;2022-11-09T21:22:55;101432.52;;;10.28;100.00
48404;BME280;34202;52.536;6.042;2022-11-09T21:28:14;101435.58;;;10.24;100.00
48404;BME280;34202;52.536;6.042;2022-11-09T21:33:34;101439.36;;;10.22;100.00
48404;BME280;34202;52.536;6.042;2022-11-09T21:38:35;101444.70;;;10.20;100.00
48404;BME280;34202;52.536;6.042;2022-11-09T21:43:36;101448.48;;;10.17;100.00
48404;BME280;34202;52.536;6.042;2022-11-09T21:48:36;101451.43;;;10.16;100.00
48404;BME280;34202;52.536;6.042;2022-11-09T21:53:37;101459.04;;;10.13;100.00
48404;BME280;34202;52.536;6.042;2022-11-09T21:58:38;101464.37;;;10.11;100.00
48404;BME280;34202;52.536;6.042;2022-11-09T22:03:38;101478.40;;;10.08;100.00
48404;BME280;34202;52.536;6.042;2022-11-09T22:08:41;101483.20;;;10.03;100.00
48404;BME280;34202;52.536;6.042;2022-11-09T22:13:42;101487.66;;;10.00;100.00
48404;BME280;34202;52.536;6.042;2022-11-09T22:19:02;101501.50;;;9.97;100.00
48404;BME280;34202;52.536;6.042;2022-11-09T22:24:22;101505.08;;;9.94;100.00
48404;BME280;34202;52.536;6.042;2022-11-09T22:29:22;101509.73;;;9.91;100.00
48404;BME280;34202;52.536;6.042;2022-11-09T22:34:23;101511.42;;;9.89;100.00
48404;BME280;34202;52.536;6.042;2022-11-09T22:39:23;101518.65;;;9.85;100.00
48404;BME280;34202;52.536;6.042;2022-11-09T22:44:24;101520.85;;;9.82;100.00
48404;BME280;34202;52.536;6.042;2022-11-09T22:49:24;101528.98;;;9.80;100.00
48404;BME280;34202;52.536;6.042;2022-11-09T22:54:24;101535.51;;;9.77;100.00
48404;BME280;34202;52.536;6.042;2022-11-09T22:59:26;101548.30;;;9.73;100.00
48404;BME280;34202;52.536;6.042;2022-11-09T23:04:27;101553.66;;;9.71;100.00
48404;BME280;34202;52.536;6.042;2022-11-09T23:09:27;101561.59;;;9.68;100.00
48404;BME280;34202;52.536;6.042;2022-11-09T23:14:27;101572.66;;;9.66;100.00
48404;BME280;34202;52.536;6.042;2022-11-09T23:19:47;101579.18;;;9.62;100.00
48404;BME280;34202;52.536;6.042;2022-11-09T23:24:47;101585.19;;;9.59;100.00
48404;BME280;34202;52.536;6.042;2022-11-09T23:30:06;101585.10;;;9.55;100.00
48404;BME280;34202;52.536;6.042;2022-11-09T23:35:07;101589.70;;;9.51;100.00
48404;BME280;34202;52.536;6.042;2022-11-09T23:40:08;101597.04;;;9.45;100.00
48404;BME280;34202;52.536;6.042;2022-11-09T23:45:08;101599.55;;;9.41;100.00
48404;BME280;34202;52.536;6.042;2022-11-09T23:50:09;101610.23;;;9.38;100.00
48404;BME280;34202;52.536;6.042;2022-11-09T23:55:09;101609.80;;;9.34;100.00
